createdAt,value
2022-09-18T00:02:11.782Z,14.30
2022-09-18T00:05:15.328Z,14.30
2022-09-18T00:08:18.272Z,14.20
2022-09-18T00:11:25.395Z,14.20
2022-09-18T00:14:29.731Z,14.10
2022-09-18T00:17:32.715Z,14.20
2022-09-18T00:20:38.235Z,14.10
2022-09-18T00:23:42.585Z,14.20
2022-09-18T00:26:45.929Z,14.10
2022-09-18T00:29:52.080Z,14.10
2022-09-18T00:32:55.260Z,14.10
2022-09-18T00:36:03.353Z,14.10
2022-09-18T00:39:08.085Z,14.20
2022-09-18T00:42:13.955Z,14.10
2022-09-18T00:45:18.596Z,14.20
2022-09-18T00:48:23.363Z,14.20
2022-09-18T00:51:27.619Z,14.10
2022-09-18T00:54:34.468Z,15.00
2022-09-18T00:57:43.304Z,14.10
2022-09-18T01:00:47.655Z,14.00
2022-09-18T01:03:50.732Z,14.10
2022-09-18T01:07:06.489Z,14.00
2022-09-18T01:10:30.847Z,14.00
2022-09-18T01:13:46.480Z,14.00
2022-09-18T01:17:03.636Z,13.80
2022-09-18T01:20:40.290Z,14.00
2022-09-18T01:24:45.031Z,14.00
2022-09-18T01:28:15.521Z,14.00
2022-09-18T01:31:27.887Z,14.10
2022-09-18T01:34:38.275Z,14.00
2022-09-18T01:37:49.012Z,14.00
2022-09-18T01:40:59.471Z,14.10
2022-09-18T01:44:12.443Z,14.10
2022-09-18T01:47:19.499Z,13.90
2022-09-18T01:50:26.532Z,14.30
2022-09-18T01:53:38.556Z,14.40
2022-09-18T01:56:48.824Z,13.90
2022-09-18T02:00:01.556Z,14.50
2022-09-18T02:03:12.959Z,14.10
2022-09-18T02:06:22.636Z,14.20
2022-09-18T02:09:26.689Z,14.30
2022-09-18T02:12:33.125Z,14.30
2022-09-18T02:15:42.383Z,14.30
2022-09-18T02:18:52.262Z,14.60
2022-09-18T02:21:59.469Z,14.30
2022-09-18T02:25:08.408Z,14.40
2022-09-18T02:28:16.338Z,14.40
2022-09-18T02:31:21.167Z,14.20
2022-09-18T02:34:24.477Z,14.50
2022-09-18T02:37:41.669Z,14.50
2022-09-18T02:41:01.619Z,14.50
2022-09-18T02:44:14.394Z,14.70
2022-09-18T02:47:36.351Z,14.80
2022-09-18T02:50:51.109Z,14.60
2022-09-18T02:54:04.207Z,14.60
2022-09-18T02:57:15.278Z,14.60
2022-09-18T03:00:20.055Z,14.70
2022-09-18T03:03:29.236Z,14.70
2022-09-18T03:06:32.597Z,14.70
2022-09-18T03:09:35.703Z,14.60
2022-09-18T03:12:38.859Z,14.80
2022-09-18T03:15:42.088Z,14.80
2022-09-18T03:18:46.550Z,14.80
2022-09-18T03:21:51.000Z,14.90
2022-09-18T03:24:54.022Z,14.80
2022-09-18T03:27:57.324Z,14.80
2022-09-18T03:31:00.552Z,14.90
2022-09-18T03:34:06.067Z,14.90
2022-09-18T03:37:09.121Z,14.70
2022-09-18T03:40:12.742Z,14.90
2022-09-18T03:43:16.727Z,14.90
2022-09-18T03:46:23.328Z,14.90
2022-09-18T03:49:28.236Z,14.40
2022-09-18T03:52:31.261Z,15.00
2022-09-18T03:55:35.565Z,14.90
2022-09-18T03:58:38.603Z,15.10
2022-09-18T04:01:41.935Z,14.90
2022-09-18T04:04:46.517Z,14.20
2022-09-18T04:07:49.571Z,15.00
2022-09-18T04:10:52.704Z,14.90
2022-09-18T04:13:55.640Z,14.80
2022-09-18T04:16:58.775Z,14.90
2022-09-18T04:20:04.084Z,15.00
2022-09-18T04:23:07.063Z,15.00
2022-09-18T04:26:10.333Z,15.00
2022-09-18T04:29:13.419Z,15.00
2022-09-18T04:32:16.479Z,15.00
2022-09-18T04:35:21.445Z,15.00
2022-09-18T04:38:27.573Z,15.00
2022-09-18T04:41:30.748Z,15.00
2022-09-18T04:44:34.060Z,15.00
2022-09-18T04:47:37.144Z,15.00
2022-09-18T04:50:41.539Z,15.00
2022-09-18T04:53:44.773Z,15.10
2022-09-18T04:56:47.742Z,15.10
2022-09-18T04:59:50.767Z,15.10
2022-09-18T05:02:53.731Z,15.10
2022-09-18T05:05:58.159Z,15.10
2022-09-18T05:09:01.537Z,15.10
2022-09-18T05:12:05.265Z,15.10
2022-09-18T05:15:09.565Z,15.10
2022-09-18T05:18:14.242Z,15.10
2022-09-18T05:21:18.679Z,15.20
2022-09-18T05:24:21.660Z,15.20
2022-09-18T05:27:26.884Z,15.20
2022-09-18T05:30:32.423Z,15.10
2022-09-18T05:33:36.279Z,15.30
2022-09-18T05:36:40.664Z,15.40
2022-09-18T05:39:43.675Z,16.00
2022-09-18T05:42:47.423Z,15.50
2022-09-18T05:45:50.335Z,15.70
2022-09-18T05:48:54.001Z,15.80
2022-09-18T05:51:58.886Z,16.00
2022-09-18T05:55:01.887Z,16.20
2022-09-18T05:58:07.076Z,16.30
2022-09-18T06:01:10.230Z,17.30
2022-09-18T06:04:13.403Z,16.80
2022-09-18T06:07:18.127Z,16.80
2022-09-18T06:10:23.308Z,16.70
2022-09-18T06:13:26.791Z,16.90
2022-09-18T06:16:29.821Z,16.20
2022-09-18T06:19:32.855Z,16.80
2022-09-18T06:22:37.767Z,17.00
2022-09-18T06:25:40.760Z,16.80
2022-09-18T06:28:43.964Z,16.70
2022-09-18T06:31:46.969Z,16.60
2022-09-18T06:34:50.634Z,16.50
2022-09-18T06:37:55.189Z,16.50
2022-09-18T06:40:58.088Z,16.30
2022-09-18T06:44:01.092Z,16.20
2022-09-18T06:47:04.319Z,16.10
2022-09-18T06:50:08.924Z,15.90
2022-09-18T06:53:13.452Z,15.80
2022-09-18T06:56:16.481Z,16.00
2022-09-18T06:59:19.559Z,15.70
2022-09-18T07:02:22.623Z,15.60
2022-09-18T07:05:27.547Z,15.60
2022-09-18T07:08:31.905Z,15.50
2022-09-18T07:11:36.270Z,15.50
2022-09-18T07:14:39.377Z,15.40
2022-09-18T07:17:42.348Z,15.40
2022-09-18T07:20:45.409Z,15.40
2022-09-18T07:23:49.744Z,15.30
2022-09-18T07:26:52.705Z,15.30
2022-09-18T07:29:57.201Z,15.20
2022-09-18T07:33:01.695Z,15.30
2022-09-18T07:36:06.714Z,15.40
2022-09-18T07:39:11.066Z,15.30
2022-09-18T07:42:15.039Z,15.10
2022-09-18T07:45:18.219Z,15.40
2022-09-18T07:48:21.288Z,15.40
2022-09-18T07:51:26.428Z,15.30
2022-09-18T07:54:31.003Z,15.30
2022-09-18T07:57:33.989Z,15.30
2022-09-18T08:00:40.587Z,15.30
2022-09-18T08:03:45.217Z,15.30
2022-09-18T08:06:55.594Z,15.30
2022-09-18T08:10:04.843Z,15.30
2022-09-18T08:13:09.571Z,15.30
2022-09-18T08:16:13.733Z,15.30
2022-09-18T08:19:16.678Z,15.40
2022-09-18T08:22:19.648Z,15.50
2022-09-18T08:25:24.492Z,15.50
2022-09-18T08:28:29.513Z,15.60
2022-09-18T08:31:34.777Z,15.70
2022-09-18T08:34:38.902Z,15.70
2022-09-18T08:37:50.662Z,15.80
2022-09-18T08:41:18.507Z,15.90
2022-09-18T08:44:29.445Z,16.00
2022-09-18T08:47:41.428Z,16.00
2022-09-18T08:50:54.583Z,16.10
2022-09-18T08:54:20.223Z,16.20
2022-09-18T08:57:33.913Z,16.30
2022-09-18T09:00:42.872Z,16.40
2022-09-18T09:03:58.021Z,16.50
2022-09-18T09:07:18.675Z,16.60
2022-09-18T09:10:40.607Z,16.80
2022-09-18T09:14:08.877Z,16.80
2022-09-18T09:17:22.018Z,17.00
2022-09-18T09:20:36.316Z,17.10
2022-09-18T09:24:00.637Z,17.20
2022-09-18T09:27:19.209Z,17.40
2022-09-18T09:30:24.872Z,17.50
2022-09-18T09:33:34.845Z,17.70
2022-09-18T09:36:39.618Z,17.80
2022-09-18T09:39:50.549Z,17.90
2022-09-18T09:43:02.461Z,18.70
2022-09-18T09:46:21.623Z,18.20
2022-09-18T09:49:28.352Z,18.30
2022-09-18T09:52:32.737Z,18.50
2022-09-18T09:55:45.347Z,18.60
2022-09-18T09:58:59.802Z,18.70
2022-09-18T10:02:36.059Z,19.60
2022-09-18T10:05:51.634Z,19.20
2022-09-18T10:09:04.014Z,19.40
2022-09-18T10:12:22.204Z,19.60
2022-09-18T10:15:40.468Z,19.70
2022-09-18T10:18:47.760Z,19.80
2022-09-18T10:21:55.827Z,19.90
2022-09-18T10:25:06.575Z,20.00
2022-09-18T10:28:14.107Z,20.00
2022-09-18T10:31:18.678Z,20.10
2022-09-18T10:34:39.240Z,20.10
2022-09-18T10:37:43.380Z,20.10
2022-09-18T10:40:46.721Z,20.20
2022-09-18T10:44:02.154Z,20.30
2022-09-18T10:47:10.687Z,20.80
2022-09-18T10:50:21.747Z,20.20
2022-09-18T10:53:32.340Z,20.10
2022-09-18T10:56:35.513Z,20.00
2022-09-18T10:59:38.597Z,19.90
2022-09-18T11:02:49.349Z,19.70
2022-09-18T11:05:59.603Z,19.50
2022-09-18T11:09:10.485Z,19.40
2022-09-18T11:12:21.176Z,19.20
2022-09-18T11:15:32.927Z,19.10
2022-09-18T11:18:35.919Z,18.90
2022-09-18T11:21:46.891Z,18.80
2022-09-18T11:24:49.811Z,18.60
2022-09-18T11:27:55.751Z,18.40
2022-09-18T11:31:03.005Z,18.30
2022-09-18T11:34:18.153Z,18.10
2022-09-18T11:37:36.963Z,17.90
2022-09-18T11:40:48.455Z,17.70
2022-09-18T11:44:02.805Z,17.60
2022-09-18T11:47:26.858Z,17.60
2022-09-18T11:50:35.238Z,17.50
2022-09-18T11:53:44.431Z,17.50
2022-09-18T11:56:56.229Z,17.50
2022-09-18T12:00:07.732Z,17.40
2022-09-18T12:03:22.729Z,17.70
2022-09-18T12:06:41.954Z,17.90
2022-09-18T12:09:54.509Z,18.00
2022-09-18T12:13:19.050Z,18.10
2022-09-18T12:16:38.066Z,18.10
2022-09-18T12:19:49.130Z,18.10
2022-09-18T12:22:56.257Z,18.50
2022-09-18T12:26:11.982Z,18.00
2022-09-18T12:29:42.995Z,18.00
2022-09-18T12:33:20.718Z,18.10
2022-09-18T12:36:45.496Z,18.10
2022-09-18T12:40:25.363Z,18.10
2022-09-18T12:44:06.115Z,18.10
2022-09-18T12:47:42.046Z,18.10
2022-09-18T12:51:01.832Z,18.00
2022-09-18T12:54:33.370Z,17.90
2022-09-18T12:57:56.772Z,17.70
2022-09-18T13:01:11.603Z,17.70
2022-09-18T13:04:23.363Z,17.60
2022-09-18T13:07:33.095Z,17.60
2022-09-18T13:10:42.540Z,17.60
2022-09-18T13:13:54.092Z,17.50
2022-09-18T13:17:14.810Z,17.50
2022-09-18T13:20:31.998Z,17.50
2022-09-18T13:23:41.816Z,17.50
2022-09-18T13:26:51.554Z,17.50
2022-09-18T13:29:59.185Z,17.50
2022-09-18T13:33:04.897Z,17.40
2022-09-18T13:36:08.381Z,17.40
2022-09-18T13:39:20.667Z,17.30
2022-09-18T13:42:33.965Z,17.30
2022-09-18T13:45:39.946Z,17.40
2022-09-18T13:48:49.089Z,17.60
2022-09-18T13:51:52.491Z,17.90
2022-09-18T13:55:03.249Z,18.20
2022-09-18T13:58:48.022Z,18.40
2022-09-18T14:02:02.759Z,18.50
2022-09-18T14:05:40.420Z,18.60
2022-09-18T14:08:43.517Z,18.50
2022-09-18T14:11:47.194Z,18.40
2022-09-18T14:15:02.763Z,18.20
2022-09-18T14:18:15.586Z,17.50
2022-09-18T14:21:28.411Z,18.00
2022-09-18T14:25:03.443Z,17.90
2022-09-18T14:28:08.088Z,17.70
2022-09-18T14:31:14.928Z,17.70
2022-09-18T14:34:24.749Z,17.60
2022-09-18T14:37:32.903Z,17.50
2022-09-18T14:40:37.138Z,17.40
2022-09-18T14:43:47.776Z,17.70
2022-09-18T14:46:55.617Z,17.20
2022-09-18T14:49:58.745Z,17.20
2022-09-18T14:53:21.319Z,17.10
2022-09-18T14:56:29.786Z,17.10
2022-09-18T14:59:34.413Z,17.00
2022-09-18T15:02:38.610Z,17.00
2022-09-18T15:05:41.489Z,17.10
2022-09-18T15:08:49.309Z,17.10
2022-09-18T15:12:04.035Z,17.20
2022-09-18T15:15:32.972Z,17.90
2022-09-18T15:18:43.058Z,17.30
2022-09-18T15:21:49.205Z,17.20
2022-09-18T15:24:53.703Z,17.30
2022-09-18T15:28:04.938Z,18.10
2022-09-18T15:31:11.674Z,17.40
2022-09-18T15:34:19.517Z,17.40
2022-09-18T15:37:27.498Z,17.30
2022-09-18T15:40:36.373Z,17.30
2022-09-18T15:43:43.675Z,17.30
2022-09-18T15:46:46.713Z,17.30
2022-09-18T15:49:51.394Z,17.20
2022-09-18T15:53:20.775Z,17.10
2022-09-18T15:56:25.163Z,17.10
2022-09-18T15:59:33.720Z,17.10
2022-09-18T16:02:39.319Z,16.50
2022-09-18T16:05:57.211Z,17.00
2022-09-18T16:09:01.300Z,17.00
2022-09-18T16:12:38.066Z,17.40
2022-09-18T16:15:47.225Z,16.90
2022-09-18T16:18:56.033Z,16.90
2022-09-18T16:22:10.296Z,16.80
2022-09-18T16:25:21.361Z,16.70
2022-09-18T16:28:28.599Z,16.60
2022-09-18T16:31:35.007Z,16.60
2022-09-18T16:34:38.463Z,16.50
2022-09-18T16:37:41.999Z,16.50
2022-09-18T16:40:47.507Z,16.40
2022-09-18T16:43:53.842Z,16.40
2022-09-18T16:47:02.392Z,16.40
2022-09-18T16:50:06.722Z,16.30
2022-09-18T16:53:10.005Z,16.30
2022-09-18T16:56:16.871Z,16.20
2022-09-18T16:59:25.705Z,16.20
2022-09-18T17:02:29.871Z,16.20
2022-09-18T17:05:33.383Z,16.10
2022-09-18T17:08:36.996Z,16.10
2022-09-18T17:11:39.972Z,16.00
2022-09-18T17:14:44.365Z,16.00
2022-09-18T17:17:47.449Z,15.90
2022-09-18T17:20:50.629Z,15.90
2022-09-18T17:23:54.007Z,15.80
2022-09-18T17:26:57.069Z,15.80
2022-09-18T17:30:01.314Z,16.50
2022-09-18T17:33:04.219Z,15.70
2022-09-18T17:36:09.635Z,15.60
2022-09-18T17:39:13.416Z,15.00
2022-09-18T17:42:16.598Z,15.50
2022-09-18T17:45:20.935Z,15.90
2022-09-18T17:48:28.335Z,15.40
2022-09-18T17:51:31.465Z,15.40
2022-09-18T17:54:36.012Z,15.30
2022-09-18T17:57:39.301Z,15.70
2022-09-18T18:00:44.013Z,14.40
2022-09-18T18:03:48.939Z,15.10
2022-09-18T18:06:51.950Z,15.20
2022-09-18T18:09:55.260Z,15.00
2022-09-18T18:13:01.079Z,15.00
2022-09-18T18:16:10.886Z,15.00
2022-09-18T18:19:13.954Z,15.00
2022-09-18T18:22:17.116Z,15.00
2022-09-18T18:25:23.477Z,14.90
2022-09-18T18:28:26.996Z,14.90
2022-09-18T18:31:31.548Z,14.90
2022-09-18T18:34:34.620Z,15.00
2022-09-18T18:37:37.803Z,14.80
2022-09-18T18:40:40.800Z,14.80
2022-09-18T18:43:44.571Z,14.70
2022-09-18T18:46:50.088Z,14.60
2022-09-18T18:49:54.178Z,14.60
2022-09-18T18:53:02.549Z,14.50
2022-09-18T18:56:13.598Z,14.50
2022-09-18T18:59:22.058Z,14.40
2022-09-18T19:02:26.947Z,14.40
2022-09-18T19:05:31.131Z,14.40
2022-09-18T19:08:35.588Z,14.40
2022-09-18T19:11:50.779Z,14.30
2022-09-18T19:14:54.864Z,14.40
2022-09-18T19:18:03.096Z,14.30
2022-09-18T19:21:07.424Z,14.30
2022-09-18T19:24:12.949Z,15.10
2022-09-18T19:27:16.119Z,14.30
2022-09-18T19:30:19.225Z,14.30
2022-09-18T19:33:23.912Z,14.30
2022-09-18T19:36:31.030Z,13.70
2022-09-18T19:39:34.589Z,14.30
2022-09-18T19:42:37.851Z,14.30
2022-09-18T19:45:43.757Z,14.30
2022-09-18T19:48:51.473Z,14.20
2022-09-18T19:51:55.752Z,14.30
2022-09-18T19:55:00.303Z,14.30
2022-09-18T19:58:03.319Z,14.10
2022-09-18T20:01:10.872Z,14.40
2022-09-18T20:04:15.305Z,14.20
2022-09-18T20:07:18.426Z,14.10
2022-09-18T20:10:22.807Z,14.10
2022-09-18T20:13:27.469Z,14.10
2022-09-18T20:16:30.633Z,13.00
2022-09-18T20:19:35.147Z,14.00
2022-09-18T20:22:40.369Z,13.90
2022-09-18T20:25:44.014Z,13.90
2022-09-18T20:28:47.217Z,13.90
2022-09-18T20:31:50.539Z,13.90
2022-09-18T20:34:54.825Z,13.90
2022-09-18T20:38:04.510Z,13.90
2022-09-18T20:41:11.941Z,13.80
2022-09-18T20:44:15.420Z,13.90
2022-09-18T20:47:18.622Z,14.70
2022-09-18T20:50:27.661Z,14.90
2022-09-18T20:53:30.695Z,13.80
2022-09-18T20:56:36.036Z,13.80
2022-09-18T20:59:41.466Z,13.80
2022-09-18T21:02:49.280Z,13.80
2022-09-18T21:06:07.601Z,13.50
2022-09-18T21:09:16.939Z,13.80
2022-09-18T21:12:20.033Z,13.10
2022-09-18T21:15:23.171Z,13.80
2022-09-18T21:18:26.525Z,13.70
2022-09-18T21:21:34.692Z,14.20
2022-09-18T21:24:37.847Z,14.70
2022-09-18T21:27:40.863Z,13.60
2022-09-18T21:30:43.879Z,14.40
2022-09-18T21:33:47.565Z,13.70
2022-09-18T21:36:53.755Z,13.70
2022-09-18T21:39:57.164Z,13.70
2022-09-18T21:43:00.960Z,13.60
2022-09-18T21:46:05.645Z,13.60
2022-09-18T21:49:11.418Z,13.60
2022-09-18T21:52:16.688Z,13.60
2022-09-18T21:55:20.596Z,13.60
2022-09-18T21:58:26.352Z,13.60
2022-09-18T22:01:32.185Z,13.50
2022-09-18T22:04:35.254Z,13.50
2022-09-18T22:07:40.740Z,13.50
2022-09-18T22:10:43.678Z,13.50
2022-09-18T22:13:47.730Z,13.70
2022-09-18T22:16:53.685Z,13.90
2022-09-18T22:19:57.188Z,13.40
2022-09-18T22:23:01.554Z,13.40
2022-09-18T22:26:05.530Z,13.40
2022-09-18T22:29:15.353Z,13.40
2022-09-18T22:32:18.295Z,13.30
2022-09-18T22:35:21.367Z,13.30
2022-09-18T22:38:25.706Z,13.30
2022-09-18T22:41:28.771Z,13.30
2022-09-18T22:44:32.622Z,13.30
2022-09-18T22:47:35.761Z,13.30
2022-09-18T22:50:38.759Z,13.30
2022-09-18T22:53:49.262Z,13.30
2022-09-18T22:56:54.398Z,13.30
2022-09-18T22:59:57.560Z,13.80
2022-09-18T23:03:01.071Z,13.30
2022-09-18T23:06:04.762Z,13.30
2022-09-18T23:09:09.021Z,13.30
2022-09-18T23:12:11.871Z,13.40
2022-09-18T23:15:14.925Z,13.30
2022-09-18T23:18:18.374Z,13.30
2022-09-18T23:21:23.778Z,13.30
2022-09-18T23:24:28.658Z,13.30
2022-09-18T23:27:31.686Z,13.30
2022-09-18T23:30:37.662Z,13.20
2022-09-18T23:33:43.316Z,13.20
2022-09-18T23:36:49.210Z,13.10
2022-09-18T23:39:53.784Z,13.20
2022-09-18T23:42:56.788Z,13.20
2022-09-18T23:45:59.993Z,13.20
2022-09-18T23:49:03.643Z,13.20
2022-09-18T23:52:06.699Z,13.30
2022-09-18T23:55:11.245Z,13.30
2022-09-18T23:58:15.374Z,13.20
